createdAt,value
2022-08-16T00:03:37.685Z,17.3
2022-08-16T00:13:41.531Z,17.55
2022-08-16T00:23:34.993Z,17.39
2022-08-16T00:33:34.595Z,17.38
2022-08-16T00:43:40.680Z,17.3
2022-08-16T00:53:34.565Z,17.15
2022-08-16T01:03:35.079Z,16.94
2022-08-16T01:13:34.551Z,16.84
2022-08-16T01:23:45.335Z,16.89
2022-08-16T01:33:35.954Z,17.07
2022-08-16T01:43:34.511Z,16.96
2022-08-16T01:53:34.529Z,16.85
2022-08-16T02:03:34.491Z,16.7
2022-08-16T02:13:34.499Z,16.6
2022-08-16T02:23:34.477Z,16.36
2022-08-16T02:33:43.034Z,16.39
2022-08-16T02:43:34.460Z,16.44
2022-08-16T02:53:34.446Z,16.35
2022-08-16T03:04:30.322Z,16.41
2022-08-16T03:13:40.085Z,16.3
2022-08-16T03:23:35.516Z,16.02
2022-08-16T03:33:34.415Z,15.79
2022-08-16T03:43:50.879Z,15.81
2022-08-16T03:53:37.556Z,15.74
2022-08-16T04:03:34.388Z,15.77
2022-08-16T04:13:59.689Z,15.77
2022-08-16T04:23:34.356Z,15.89
2022-08-16T04:33:34.860Z,16.21
2022-08-16T04:43:34.339Z,16.48
2022-08-16T04:53:34.324Z,16.57
2022-08-16T05:03:34.322Z,16.63
2022-08-16T05:13:40.223Z,16.79
2022-08-16T05:23:34.318Z,16.9
2022-08-16T05:33:34.274Z,17.12
2022-08-16T05:43:43.071Z,17.49
2022-08-16T05:53:36.366Z,18.2
2022-08-16T06:03:34.840Z,19.6
2022-08-16T06:13:34.241Z,19.46
2022-08-16T06:23:34.223Z,19.17
2022-08-16T06:33:41.458Z,19.13
2022-08-16T06:43:34.207Z,19.41
2022-08-16T06:53:34.892Z,20.22
2022-08-16T07:03:54.789Z,21.2
2022-08-16T07:23:34.956Z,22.2
2022-08-16T07:33:41.316Z,23.03
2022-08-16T07:43:34.163Z,22.79
2022-08-16T07:53:34.138Z,23.18
2022-08-16T08:03:35.826Z,23.05
2022-08-16T08:13:42.079Z,23.68
2022-08-16T08:23:34.098Z,23.75
2022-08-16T08:33:34.147Z,24.43
2022-08-16T08:43:36.392Z,24.18
2022-08-16T08:53:34.062Z,24.22
2022-08-16T09:03:34.089Z,24.83
2022-08-16T09:13:34.018Z,25.46
2022-08-16T09:23:36.355Z,26.26
2022-08-16T09:33:37.109Z,26.34
2022-08-16T09:43:53.441Z,26.7
2022-08-16T09:53:33.989Z,27.04
2022-08-16T10:03:33.997Z,27.11
2022-08-16T10:13:33.955Z,27.46
2022-08-16T10:23:33.935Z,27.87
2022-08-16T10:33:34.254Z,28.27
2022-08-16T10:43:33.915Z,28.39
2022-08-16T10:53:34.021Z,28.94
2022-08-16T11:03:42.098Z,29.03
2022-08-16T11:23:33.861Z,29.56
2022-08-16T11:43:33.833Z,30.13
2022-08-16T11:53:35.876Z,30.47
2022-08-16T12:03:35.040Z,30.37
2022-08-16T12:13:33.820Z,30.44
2022-08-16T12:23:33.770Z,31.16
2022-08-16T12:33:42.881Z,30.73
2022-08-16T12:43:33.746Z,31.25
2022-08-16T12:53:33.756Z,31.79
2022-08-16T13:03:39.689Z,31.99
2022-08-16T13:13:33.722Z,32.15
2022-08-16T13:23:33.718Z,31.98
2022-08-16T13:33:33.706Z,31.88
2022-08-16T13:43:33.705Z,31.32
2022-08-16T13:53:33.704Z,29.9
2022-08-16T14:03:33.665Z,29.14
2022-08-16T14:13:34.186Z,28.9
2022-08-16T14:23:33.630Z,29.12
2022-08-16T14:33:33.612Z,29.32
2022-08-16T14:43:33.627Z,29.57
2022-08-16T14:53:33.606Z,29.14
2022-08-16T15:03:37.435Z,29.03
2022-08-16T15:13:33.565Z,28.95
2022-08-16T15:23:34.244Z,29.02
2022-08-16T15:33:33.580Z,29.3
2022-08-16T15:43:34.003Z,29.78
2022-08-16T15:53:33.537Z,31.3
2022-08-16T16:03:34.466Z,31.39
2022-08-16T16:13:33.482Z,32.03
2022-08-16T16:23:33.485Z,31.61
2022-08-16T16:33:33.474Z,31.36
2022-08-16T16:43:33.438Z,30.83
2022-08-16T16:53:37.724Z,30.72
2022-08-16T17:03:33.504Z,30.48
2022-08-16T17:13:33.416Z,30.31
2022-08-16T17:23:57.822Z,29.03
2022-08-16T17:39:27.880Z,27.41
2022-08-16T17:43:33.377Z,26.28
2022-08-16T17:53:33.366Z,25.7
2022-08-16T18:04:03.416Z,25.29
2022-08-16T18:13:33.325Z,24.93
2022-08-16T18:23:33.321Z,24.81
2022-08-16T18:33:33.353Z,24.76
2022-08-16T18:43:54.143Z,24.68
2022-08-16T18:53:33.287Z,24.65
2022-08-16T19:03:33.296Z,24.48
2022-08-16T19:13:33.282Z,24.35
2022-08-16T19:23:33.253Z,24.06
2022-08-16T19:33:33.242Z,24.06
2022-08-16T19:43:33.237Z,23.82
2022-08-16T19:53:33.225Z,23.9
2022-08-16T20:03:33.249Z,23.28
2022-08-16T20:13:33.189Z,22.62
2022-08-16T20:23:33.317Z,22.2
2022-08-16T20:33:33.170Z,21.82
2022-08-16T20:43:33.163Z,21.4
2022-08-16T20:53:33.135Z,20.97
2022-08-16T21:03:33.157Z,20.55
2022-08-16T21:13:33.150Z,20.17
2022-08-16T21:23:33.114Z,19.85
2022-08-16T21:33:33.100Z,19.59
2022-08-16T21:53:33.075Z,19.06
2022-08-16T22:03:33.181Z,18.87
2022-08-16T22:13:33.050Z,18.69
2022-08-16T22:23:33.069Z,18.65
2022-08-16T22:33:33.033Z,18.68
2022-08-16T22:43:33.026Z,18.57
2022-08-16T22:53:33.054Z,18.41
2022-08-16T23:03:33.019Z,18.04
2022-08-16T23:13:33.029Z,17.92
2022-08-16T23:23:32.994Z,17.54
2022-08-16T23:33:32.992Z,17.25
2022-08-16T23:43:32.950Z,17.12
2022-08-16T23:53:32.947Z,17.02
